Portada
METAR-TAF:

METAR-TAF

Aeroports :

Nova York, Nova York, Estats Units d'Amèrica

latitud: 40-42-04N, longitud: 074-00-32W, altitud: 2 m

Observació

L'informe es va fer fa 16 minuts, a les 22:56 UTC
Vent 4 kt amb direcció variable
Temperatura 8°C
Humitat 49%
Pressió 1011 hPa
Cel clar

METAR: KJRB 222256Z AUTO VRB04KT CLR 08/M02 A2984 RMK AO2 PK WND 27035/2211 SLP105 T00781017 PWINO

Hora: 18:12 (23:12 UTC)


TAF: manca

Observacions i pronòstics meteorològics de més de 4000 aeroports (METAR i TAF).

Les estacions disponibles són els punts grocs i vermells al mapa.

Posi el ratolí al punt desitjat per veure el nom de l'estació.

Feu clic per veure les observacions i els pronòstics meteorològics.

Per canviar el mapa: feu clic els botons verds amb una creu de color negre per apropar; al botó verd amb un guió per allunyar la imatge; o en les fletxes verdes per a mapes adjacents.


METAR-TAF: